createdAt,value
2017-08-01T00:02:20.579Z,83.40
2017-08-01T00:07:23.773Z,85.30
2017-08-01T00:12:26.973Z,86.90
2017-08-01T00:17:30.916Z,87.70
2017-08-01T00:22:34.110Z,87.70
2017-08-01T00:27:37.280Z,88.20
2017-08-01T00:32:40.480Z,88.50
2017-08-01T00:37:43.654Z,87.70
2017-08-01T00:42:46.841Z,87.00
2017-08-01T00:47:50.412Z,86.50
2017-08-01T00:52:53.619Z,84.30
2017-08-01T00:57:56.791Z,80.40
2017-08-01T01:02:59.977Z,84.50
2017-08-01T01:08:03.538Z,86.60
2017-08-01T01:13:06.736Z,84.20
2017-08-01T01:18:09.929Z,80.80
2017-08-01T01:23:13.370Z,86.10
2017-08-01T01:28:16.609Z,95.20
2017-08-01T01:33:19.784Z,95.20
2017-08-01T01:38:22.967Z,99.90
2017-08-01T01:43:26.154Z,99.30
2017-08-01T01:48:29.353Z,99.90
2017-08-01T01:53:32.523Z,99.90
2017-08-01T01:58:35.719Z,99.90
2017-08-01T02:03:38.890Z,99.90
2017-08-01T02:08:42.079Z,99.90
2017-08-01T02:13:45.249Z,99.90
2017-08-01T02:18:49.199Z,99.90
2017-08-01T02:23:52.351Z,99.90
2017-08-01T02:28:55.534Z,99.90
2017-08-01T02:33:58.876Z,99.90
2017-08-01T02:39:02.053Z,99.90
2017-08-01T02:44:05.255Z,99.90
2017-08-01T02:49:08.414Z,99.90
2017-08-01T02:54:12.399Z,99.90
2017-08-01T02:59:15.570Z,99.90
2017-08-01T03:04:18.744Z,99.90
2017-08-01T03:09:21.918Z,99.90
2017-08-01T03:14:25.117Z,99.90
2017-08-01T03:19:28.276Z,99.90
2017-08-01T03:24:32.265Z,99.90
2017-08-01T03:29:35.449Z,99.90
2017-08-01T03:34:38.638Z,99.90
2017-08-01T03:39:41.820Z,99.90
2017-08-01T03:44:45.776Z,99.90
2017-08-01T03:49:49.075Z,99.90
2017-08-01T03:54:52.993Z,99.90
2017-08-01T03:59:56.193Z,99.90
2017-08-01T04:04:59.406Z,99.90
2017-08-01T04:10:02.617Z,99.90
2017-08-01T04:15:05.817Z,99.90
2017-08-01T04:20:08.995Z,99.90
2017-08-01T04:25:12.188Z,99.90
2017-08-01T04:30:15.374Z,99.90
2017-08-01T04:35:18.583Z,99.90
2017-08-01T04:40:21.772Z,99.90
2017-08-01T04:45:24.941Z,99.90
2017-08-01T04:50:28.881Z,99.90
2017-08-01T04:55:32.082Z,99.90
2017-08-01T05:00:35.956Z,99.90
2017-08-01T05:05:39.214Z,99.90
2017-08-01T05:10:43.160Z,99.90
2017-08-01T05:15:46.357Z,99.90
2017-08-01T05:20:49.552Z,99.90
2017-08-01T05:25:52.744Z,99.90
2017-08-01T05:30:56.691Z,93.50
2017-08-01T05:35:59.900Z,93.60
2017-08-01T05:41:03.082Z,91.80
2017-08-01T05:46:07.029Z,84.40
2017-08-01T05:51:11.177Z,84.30
2017-08-01T05:56:14.357Z,83.10
2017-08-01T06:01:17.570Z,79.80
2017-08-01T06:06:21.502Z,75.70
2017-08-01T06:11:24.697Z,76.30
2017-08-01T06:16:27.876Z,73.10
2017-08-01T06:21:31.837Z,70.20
2017-08-01T06:26:35.030Z,69.30
2017-08-01T06:31:38.214Z,72.60
2017-08-01T06:36:42.161Z,70.10
2017-08-01T06:41:45.349Z,69.60
2017-08-01T06:46:49.350Z,63.00
2017-08-01T06:51:52.537Z,62.90
2017-08-01T06:56:55.725Z,66.60
2017-08-01T07:01:58.943Z,72.20
2017-08-01T07:07:02.123Z,62.90
2017-08-01T07:12:05.303Z,64.10
2017-08-01T07:17:08.493Z,61.20
2017-08-01T07:22:11.707Z,61.70
2017-08-01T07:27:14.882Z,61.40
2017-08-01T07:32:18.086Z,62.70
2017-08-01T07:37:22.349Z,63.30
2017-08-01T07:42:25.584Z,64.30
2017-08-01T07:47:29.543Z,74.00
2017-08-01T07:52:32.856Z,73.90
2017-08-01T07:57:36.039Z,78.10
2017-08-01T08:02:39.236Z,77.70
2017-08-01T08:07:43.222Z,78.80
2017-08-01T08:12:46.430Z,78.70
2017-08-01T08:17:49.614Z,78.40
2017-08-01T08:22:52.819Z,78.70
2017-08-01T08:27:56.112Z,78.20
2017-08-01T08:32:59.310Z,75.70
2017-08-01T08:38:02.473Z,77.50
2017-08-01T08:43:05.923Z,78.80
2017-08-01T08:48:09.280Z,80.50
2017-08-01T08:53:12.488Z,80.00
2017-08-01T08:58:15.705Z,77.40
2017-08-01T09:03:18.877Z,77.20
2017-08-01T09:08:22.063Z,76.10
2017-08-01T09:13:25.251Z,74.90
2017-08-01T09:18:29.202Z,80.30
2017-08-01T09:23:32.411Z,80.40
2017-08-01T09:28:36.137Z,75.70
2017-08-01T09:33:39.358Z,74.80
2017-08-01T09:38:42.590Z,74.10
2017-08-01T09:43:45.754Z,73.40
2017-08-01T09:48:48.934Z,73.30
2017-08-01T09:53:52.142Z,72.30
2017-08-01T09:58:55.341Z,73.40
2017-08-01T10:03:59.292Z,62.90
2017-08-01T10:09:02.485Z,62.70
2017-08-01T10:14:05.710Z,59.00
2017-08-01T10:19:08.895Z,62.30
2017-08-01T10:24:12.234Z,62.70
2017-08-01T10:29:15.474Z,63.80
2017-08-01T10:34:18.641Z,61.70
2017-08-01T10:39:21.884Z,62.50
2017-08-01T10:44:25.133Z,65.40
2017-08-01T10:49:29.057Z,63.30
2017-08-01T10:54:32.382Z,63.40
2017-08-01T10:59:35.585Z,64.20
2017-08-01T11:04:38.768Z,63.20
2017-08-01T11:09:43.178Z,67.30
2017-08-01T11:14:46.377Z,67.20
2017-08-01T11:19:49.772Z,70.70
2017-08-01T11:24:52.961Z,70.80
2017-08-01T11:29:56.183Z,74.10
2017-08-01T11:34:59.373Z,69.80
2017-08-01T11:40:02.566Z,67.70
2017-08-01T11:45:05.768Z,64.80
2017-08-01T11:50:08.991Z,61.50
2017-08-01T11:55:12.194Z,59.50
2017-08-01T12:00:15.370Z,59.40
2017-08-01T12:05:19.411Z,61.80
2017-08-01T12:10:22.609Z,61.80
2017-08-01T12:15:26.586Z,63.80
2017-08-01T12:20:29.781Z,63.70
2017-08-01T12:25:33.199Z,61.50
2017-08-01T12:30:36.411Z,60.90
2017-08-01T12:35:39.677Z,61.40
2017-08-01T12:40:43.799Z,59.80
2017-08-01T12:45:47.866Z,59.80
2017-08-01T12:50:51.148Z,59.80
2017-08-01T12:55:54.357Z,62.10
2017-08-01T13:00:57.558Z,64.70
2017-08-01T13:06:00.828Z,66.50
2017-08-01T13:11:04.254Z,68.90
2017-08-01T13:16:08.223Z,70.50
2017-08-01T13:21:11.511Z,70.40
2017-08-01T13:26:14.887Z,76.00
2017-08-01T13:31:18.232Z,77.00
2017-08-01T13:36:21.438Z,79.70
2017-08-01T13:41:24.632Z,78.80
2017-08-01T13:46:28.625Z,78.00
2017-08-01T13:51:31.828Z,77.90
2017-08-01T13:56:34.986Z,79.60
2017-08-01T14:01:38.187Z,76.00
2017-08-01T14:06:41.390Z,74.60
2017-08-01T14:11:44.590Z,76.80
2017-08-01T14:16:48.541Z,78.20
2017-08-01T14:21:51.866Z,78.20
2017-08-01T14:26:55.056Z,83.50
2017-08-01T14:31:58.242Z,83.00
2017-08-01T14:37:02.208Z,79.70
2017-08-01T14:42:05.716Z,80.00
2017-08-01T14:47:08.930Z,75.10
2017-08-01T14:52:12.337Z,74.70
2017-08-01T14:57:15.560Z,75.60
2017-08-01T15:02:19.090Z,78.80
2017-08-01T15:07:23.006Z,76.80
2017-08-01T15:12:27.001Z,72.10
2017-08-01T15:17:30.349Z,72.60
2017-08-01T15:22:33.616Z,73.70
2017-08-01T15:27:36.842Z,75.50
2017-08-01T15:32:40.027Z,76.30
2017-08-01T15:37:43.299Z,75.70
2017-08-01T15:42:47.347Z,75.50
2017-08-01T15:47:50.545Z,75.50
2017-08-01T15:52:54.745Z,74.80
2017-08-01T15:57:58.261Z,74.80
2017-08-01T16:03:01.477Z,74.60
2017-08-01T16:08:04.653Z,75.30
2017-08-01T16:13:08.002Z,72.20
2017-08-01T16:18:12.075Z,63.90
2017-08-01T16:23:15.281Z,63.90
2017-08-01T16:28:18.488Z,73.90
2017-08-01T16:33:21.692Z,76.80
2017-08-01T16:38:25.024Z,72.30
2017-08-01T16:43:28.214Z,66.70
2017-08-01T16:48:31.555Z,69.30
2017-08-01T16:53:34.766Z,68.50
2017-08-01T16:58:37.999Z,70.40
2017-08-01T17:03:41.985Z,66.10
2017-08-01T17:08:45.184Z,66.10
2017-08-01T17:13:48.371Z,65.80
2017-08-01T17:18:51.569Z,65.80
2017-08-01T17:23:55.783Z,64.90
2017-08-01T17:28:59.775Z,66.20
2017-08-01T17:34:02.909Z,66.10
2017-08-01T17:39:06.096Z,67.40
2017-08-01T17:44:10.108Z,69.50
2017-08-01T17:49:13.312Z,68.90
2017-08-01T17:54:16.448Z,67.70
2017-08-01T17:59:19.654Z,67.10
2017-08-01T18:04:23.587Z,69.10
2017-08-01T18:09:26.995Z,69.10
2017-08-01T18:14:31.412Z,69.90
2017-08-01T18:19:34.948Z,69.90
2017-08-01T18:24:38.313Z,70.90
2017-08-01T18:29:41.538Z,70.00
2017-08-01T18:34:44.977Z,69.80
2017-08-01T18:39:49.117Z,69.10
2017-08-01T18:44:52.575Z,69.20
2017-08-01T18:49:55.827Z,69.20
2017-08-01T18:54:59.790Z,70.20
2017-08-01T19:00:03.049Z,70.20
2017-08-01T19:05:07.061Z,70.00
2017-08-01T19:10:10.263Z,69.90
2017-08-01T19:15:14.838Z,70.80
2017-08-01T19:20:18.800Z,70.70
2017-08-01T19:25:22.047Z,70.80
2017-08-01T19:30:25.992Z,71.80
2017-08-01T19:35:29.206Z,71.70
2017-08-01T19:40:32.457Z,68.80
2017-08-01T19:45:35.730Z,66.00
2017-08-01T19:50:38.915Z,61.00
2017-08-01T19:55:42.881Z,76.50
2017-08-01T20:00:46.077Z,76.50
2017-08-01T20:05:49.279Z,82.70
2017-08-01T20:10:52.560Z,82.10
2017-08-01T20:15:55.979Z,82.80
2017-08-01T20:20:59.190Z,83.80
2017-08-01T20:26:02.401Z,82.80
2017-08-01T20:31:06.416Z,76.50
2017-08-01T20:36:09.735Z,76.30
2017-08-01T20:41:12.953Z,79.40
2017-08-01T20:46:16.151Z,81.60
2017-08-01T20:51:19.411Z,81.70
2017-08-01T20:56:22.798Z,79.40
2017-08-01T21:01:25.996Z,80.50
2017-08-01T21:06:29.284Z,82.40
2017-08-01T21:11:32.514Z,84.40
2017-08-01T21:16:35.721Z,85.70
2017-08-01T21:21:39.044Z,85.60
2017-08-01T21:26:42.580Z,86.90
2017-08-01T21:31:45.837Z,87.20
2017-08-01T21:36:49.076Z,88.30
2017-08-01T21:41:52.540Z,88.70
2017-08-01T21:46:57.052Z,89.20
2017-08-01T21:52:01.144Z,88.30
2017-08-01T21:57:04.335Z,88.30
2017-08-01T22:02:07.538Z,89.30
2017-08-01T22:07:11.373Z,89.50
2017-08-01T22:12:14.554Z,90.00
2017-08-01T22:17:18.341Z,88.60
2017-08-01T22:22:21.723Z,88.90
2017-08-01T22:27:24.933Z,92.60
2017-08-01T22:32:28.142Z,75.30
2017-08-01T22:37:31.320Z,84.10
2017-08-01T22:42:34.509Z,88.20
2017-08-01T22:47:37.709Z,88.30
2017-08-01T22:52:41.666Z,86.70
2017-08-01T22:57:44.869Z,86.70
2017-08-01T23:02:48.045Z,86.50
2017-08-01T23:07:51.952Z,83.90
2017-08-01T23:12:55.903Z,85.60
2017-08-01T23:17:59.077Z,85.60
2017-08-01T23:23:03.038Z,87.50
2017-08-01T23:28:06.278Z,87.50
2017-08-01T23:33:09.446Z,88.70
2017-08-01T23:38:12.675Z,89.00
2017-08-01T23:43:15.882Z,89.80
2017-08-01T23:48:19.212Z,90.20
2017-08-01T23:53:22.613Z,90.90
2017-08-01T23:58:25.807Z,90.60
